Fourchu: Past 24 Hour Conditions

 

St.Paul Island

04:00 PM AST 20 November 2014
This table is a summary of hourly weather conditions for the past 24 hours.
Date / Time
(AST)
Wind(knots) Conditions Visibility(km) Pressure(kPa) Air tempC) Relative humidity(%) Dew pointC) Wind Chill
20 November 2014
16:00 S 21 gust 33 N/A N/A 101.1 4 78 1 *
15:00 S 28 gust 35 N/A N/A 101.2 3 76 -1 *
14:00 S 14 gust 21 N/A N/A 101.4 1 64 -5 *
13:00 S 24 gust 29 N/A N/A 101.4 1 55 -7 *
12:00 S 17 N/A N/A 101.5 1 62 -6 *
11:00 SW 10 N/A N/A 101.7 0 59 -7 *
10:00 SW 12 N/A N/A 101.7 0 60 -7 -6
9:00 WSW 17 N/A N/A 101.8 0 60 -7 -7
8:00 WSW 18 N/A N/A 101.8 -1 65 -6 -8
7:00 W 20 N/A N/A 101.8 -1 69 -6 -8
6:00 W 23 gust 29 N/A N/A 101.7 -1 67 -6 -9
5:00 W 29 gust 34 N/A N/A 101.7 -1 63 -7 -9
4:00 W 29 gust 34 N/A N/A 101.7 -1 75 -5 -10
3:00 W 32 gust 37 N/A N/A 101.6 -1 78 -4 -10
2:00 W 33 N/A N/A 101.5 0 65 -6 -9
1:00 W 34 N/A N/A 101.4 0 58 -7 *
0:00 W 35 gust 40 N/A N/A 101.3 1 60 -6 *
19 November 2014
23:00 W 45 gust 51 N/A N/A 101.2 0 77 -4 -10
22:00 W 37 gust 46 N/A N/A 101.1 0 88 -2 -10
21:00 W 28 gust 46 N/A N/A 101.1 0 87 -2 -9
20:00 WSW 37 gust 45 N/A N/A 100.9 1 75 -3 *
19:00 W 40 gust 49 N/A N/A 100.8 1 68 -4 *
18:00 W 41 gust 49 N/A N/A 100.7 1 64 -5 *
17:00 W 41 gust 50 N/A N/A 100.5 1 63 -6 *
16:00 W 41 gust 51 N/A N/A 100.4 1 74 -4 *
 
Map of Atlantic - Newfoundland marine weather areas Southwestern Grand Banks - 44138 Banquereau - 44139 Tail of the Bank - 44140 Nickerson Bank - 44251 Northeast Burgeo Bank - 44255 Blanc-Sablon Airport Cap Whittle Chevery Natashquan Airport Heath Point Miscou Island Grand Étang Ingonish Beach North Mountain St.Paul Island J.A. Douglas McCurdy Sydney Airport Charlottetown Airport East Point North Cape Argentia Bonavista Burgeo Cape Race Corner Brook Daniel's Harbour Englee Ferolle Point La Scie Port aux Basques Rocky Harbour Sagona Island St. Anthony Airport St. John's Int'l Airport St. Lawrence Stephenville Airport Twillingate Winterland Wreckhouse Cartwright Airport Mary's Harbour Grates Cove Pool's Island Marticot Island Long Pond Îles de la Madeleine Airport
Legend: buoyBuoy land stationLand Station